KRFD/RFD METAR and TAF weather

Enter ICAO airport designator
Station Type Date Time Source
KRFD METAR 2021/03/09 08:54 UTC NOAA

KRFD 090854Z 14004KT 10SM OVC210 05/01 A3027 RMK AO2 SLP252 T00500011 58003


Station Type Date Time Source
KRFD Decoded METAR 2021/03/09 08:54 UTC NOAA

GREATER ROCKFORD AIRPORT, IL, United States (KRFD) 42-12N 89-06W 221M
Mar 09, 2021 - 03:54 AM EST / 2021.03.09 0854 UTC
Wind: from the SE (140 degrees) at 5 MPH (4 KT):0
Visibility: 10 mile(s):0
Sky conditions: overcast
Temperature: 41.0 F (5.0 C)
Dew Point: 34.0 F (1.1 C)
Relative Humidity: 75%
Pressure (altimeter): 30.27 in. Hg (1025 hPa)
Pressure tendency: 0.01 inches (0.3 hPa) lower than three hours ago
ob: KRFD 090854Z 14004KT 10SM OVC210 05/01 A3027 RMK AO2 SLP252 T00500011 58003
cycle: 9

Station Type Date Time Source
KRFD TAF 2021/03/09 09:18 UTC NOAA

TAF KRFD 090914Z 0909/1006 14006KT P6SM OVC200
FM091500 17011KT P6SM BKN200
FM091800 17016G26KT P6SM SCT200

Example: see airport list